Time;durP1;ratioP1;P1;durP2;ratioP2;P2;SDS_P1;SDS_P2;PMS_P1;PMS_P2;Temp;Humidity;BMP_temperature;BMP_pressure;BME280_temperature;BME280_humidity;BME280_pressure;Samples;Min_cycle;Max_cycle;Signal;HPM_P1;HPM_P2
2023/05/11 00:00:11;;;;;;;;;;;;;;;18.61;36.44;100402.41;5004457;27;98158;-73
2023/05/11 00:02:38;;;;;;;;;;;;;;;18.59;36.52;100404.69;4972984;27;98066;-73
2023/05/11 00:05:06;;;;;;;;;;;;;;;18.56;36.49;100399.84;4986791;27;97997;-73
2023/05/11 00:07:32;;;;;;;;;;;;;;;18.55;36.37;100400.94;4964486;27;99741;-73
2023/05/11 00:09:59;;;;;;;;;;;;;;;18.53;36.35;100400.50;4964578;27;98297;-73
2023/05/11 00:12:26;;;;;;;;;;;;;;;18.50;36.33;100399.19;4973938;27;97931;-74
2023/05/11 00:14:53;;;;;;;;;;;;;;;18.49;36.39;100403.06;4971852;27;98113;-73
2023/05/11 00:17:20;;;;;;;;;;;;;;;18.48;36.50;100400.66;4970631;27;98214;-74
2023/05/11 00:19:48;;;;;;;;;;;;;;;18.46;36.52;100397.44;4971416;27;97974;-73
2023/05/11 00:22:15;;;;;;;;;;;;;;;18.43;36.57;100407.09;4972421;27;97965;-73
2023/05/11 00:24:41;;;;;;;;;;;;;;;18.43;36.58;100403.53;4974203;27;99707;-73
2023/05/11 00:27:10;;;;;;;;;;;;;;;18.40;36.43;100394.88;4971035;27;98159;-73
2023/05/11 00:29:37;;;;;;;;;;;;;;;18.38;36.50;100397.09;4984057;27;98429;-73
2023/05/11 00:32:06;;;;;;;;;;;;;;;18.37;36.63;100400.16;4978118;27;98076;-73
2023/05/11 00:34:36;;;;;;;;;;;;;;;18.35;36.67;100397.78;4972249;27;98267;-73
2023/05/11 00:37:03;;;;;;;;;;;;;;;18.33;36.55;100397.28;4965334;27;98000;-73
2023/05/11 00:39:30;;;;;;;;;;;;;;;18.30;36.52;100389.72;4965925;27;100257;-73
2023/05/11 00:41:56;;;;;;;;;;;;;;;18.30;36.49;100397.13;4976938;27;98055;-73
2023/05/11 00:44:24;;;;;;;;;;;;;;;18.28;36.51;100400.19;4953307;27;98225;-73
2023/05/11 00:46:51;;;;;;;;;;;;;;;18.25;36.46;100395.34;4971308;27;98125;-73
2023/05/11 00:49:20;;;;;;;;;;;;;;;18.24;36.55;100407.41;4958690;27;98378;-73
2023/05/11 00:51:47;;;;;;;;;;;;;;;18.22;36.56;100411.56;4982077;27;98500;-73
2023/05/11 00:54:14;;;;;;;;;;;;;;;18.21;36.50;100418.13;4986153;27;98600;-73
2023/05/11 00:56:43;;;;;;;;;;;;;;;18.18;36.53;100400.47;4981631;27;98168;-73
2023/05/11 00:59:12;;;;;;;;;;;;;;;18.16;36.55;100402.75;4985846;27;98255;-73
2023/05/11 01:01:38;;;;;;;;;;;;;;;18.14;36.65;100408.50;4961649;27;98057;-73
2023/05/11 01:04:05;;;;;;;;;;;;;;;18.12;36.56;100408.03;4987148;27;98456;-73
2023/05/11 01:06:41;;;;;;;;;;;;;;;18.10;36.63;100404.00;4971639;27;100316;-74
2023/05/11 01:09:27;;;;;;;;;;;;;;;18.09;36.87;100410.59;4973554;27;98301;-73
2023/05/11 01:12:11;;;;;;;;;;;;;;;18.06;36.64;100409.28;5003925;27;98208;-73
2023/05/11 01:14:53;;;;;;;;;;;;;;;18.05;36.60;100409.63;4990103;27;98274;-73
2023/05/11 01:17:43;;;;;;;;;;;;;;;18.01;36.71;100411.38;4988069;27;98214;-73
2023/05/11 01:20:15;;;;;;;;;;;;;;;17.97;36.64;100415.88;4981541;27;98514;-73
2023/05/11 01:23:06;;;;;;;;;;;;;;;17.92;36.74;100414.09;4984948;27;98072;-73
2023/05/11 01:26:00;;;;;;;;;;;;;;;17.87;36.64;100416.94;4995353;27;97965;-73
2023/05/11 01:28:38;;;;;;;;;;;;;;;17.82;36.64;100412.44;4984830;27;98195;-73
2023/05/11 01:31:10;;;;;;;;;;;;;;;17.79;36.79;100417.72;4987215;27;99590;-73
2023/05/11 01:33:38;;;;;;;;;;;;;;;17.76;36.74;100415.63;4983782;27;98764;-73
2023/05/11 01:36:08;;;;;;;;;;;;;;;17.73;36.71;100416.25;4987446;27;98298;-73
2023/05/11 01:38:36;;;;;;;;;;;;;;;17.70;36.71;100420.41;4972110;27;98172;-73
2023/05/11 01:41:06;;;;;;;;;;;;;;;17.65;36.70;100420.56;4971716;27;97940;-73
2023/05/11 01:43:32;;;;;;;;;;;;;;;17.62;36.76;100413.81;4969528;27;98132;-73
2023/05/11 01:46:00;;;;;;;;;;;;;;;17.60;37.11;100417.94;4985310;27;98216;-73
2023/05/11 01:48:28;;;;;;;;;;;;;;;17.57;36.89;100416.69;4972496;27;99118;-73
2023/05/11 01:50:58;;;;;;;;;;;;;;;17.54;36.77;100416.50;4968001;27;98041;-74
2023/05/11 01:53:24;;;;;;;;;;;;;;;17.50;36.82;100419.06;4984889;27;97903;-73
2023/05/11 01:55:51;;;;;;;;;;;;;;;17.48;36.84;100424.00;4987660;27;98399;-73
2023/05/11 01:58:18;;;;;;;;;;;;;;;17.45;36.88;100426.53;4969814;27;98026;-73
2023/05/11 02:00:45;;;;;;;;;;;;;;;17.43;36.85;100430.41;4974938;27;97975;-73
2023/05/11 02:03:12;;;;;;;;;;;;;;;17.40;36.86;100430.22;4976319;27;99184;-73
2023/05/11 02:05:40;;;;;;;;;;;;;;;17.38;36.87;100432.47;4973616;27;97987;-73
2023/05/11 02:08:10;;;;;;;;;;;;;;;17.35;36.90;100420.25;4969173;27;98354;-73
2023/05/11 02:10:37;;;;;;;;;;;;;;;17.32;36.85;100426.34;4969888;27;99104;-73
2023/05/11 02:13:04;;;;;;;;;;;;;;;17.30;37.05;100428.59;4968824;27;98611;-73
2023/05/11 02:15:31;;;;;;;;;;;;;;;17.28;36.70;100435.44;4969864;27;98850;-73
2023/05/11 02:17:58;;;;;;;;;;;;;;;17.24;36.95;100431.75;4969949;27;98423;-73
2023/05/11 02:20:25;;;;;;;;;;;;;;;17.23;36.86;100430.94;4995861;27;98203;-73
2023/05/11 02:22:52;;;;;;;;;;;;;;;17.20;37.02;100436.22;5001120;27;98265;-73
2023/05/11 02:25:19;;;;;;;;;;;;;;;17.17;36.84;100430.28;4967278;27;98278;-73
2023/05/11 02:27:49;;;;;;;;;;;;;;;17.15;36.97;100437.16;4986727;27;98235;-74
2023/05/11 02:30:16;;;;;;;;;;;;;;;17.13;36.92;100436.66;4983636;27;98669;-73
2023/05/11 02:32:50;;;;;;;;;;;;;;;17.11;36.93;100438.88;4984659;27;98287;-74
2023/05/11 02:35:35;;;;;;;;;;;;;;;17.08;37.10;100436.78;4952792;27;98513;-73
2023/05/11 02:38:02;;;;;;;;;;;;;;;17.06;37.25;100439.03;4971409;27;98298;-73
2023/05/11 02:40:33;;;;;;;;;;;;;;;17.04;36.95;100444.78;5003227;27;98085;-73
2023/05/11 02:43:11;;;;;;;;;;;;;;;17.01;36.86;100439.94;4966288;27;97843;-73
2023/05/11 02:45:37;;;;;;;;;;;;;;;16.99;37.17;100436.75;4987675;27;98269;-73
2023/05/11 02:48:07;;;;;;;;;;;;;;;16.97;37.10;100435.44;4964178;27;98447;-73
2023/05/11 02:50:36;;;;;;;;;;;;;;;16.96;37.10;100442.00;4976218;27;97924;-74
2023/05/11 02:53:06;;;;;;;;;;;;;;;16.91;37.11;100443.72;4988430;27;98963;-73
2023/05/11 02:55:34;;;;;;;;;;;;;;;16.90;37.14;100444.06;4986056;27;97858;-73
2023/05/11 02:58:00;;;;;;;;;;;;;;;16.88;37.08;100438.09;4971788;27;98050;-73
2023/05/11 03:00:27;;;;;;;;;;;;;;;16.86;37.07;100441.16;4979905;27;98560;-73
2023/05/11 03:02:53;;;;;;;;;;;;;;;16.85;37.08;100434.06;4964901;27;98049;-73
2023/05/11 03:05:20;;;;;;;;;;;;;;;16.83;37.05;100441.75;4968299;27;97958;-73
2023/05/11 03:07:46;;;;;;;;;;;;;;;16.81;37.17;100441.25;4981689;27;98041;-73
2023/05/11 03:10:12;;;;;;;;;;;;;;;16.80;36.96;100436.91;4982744;27;98968;-75
2023/05/11 03:12:38;;;;;;;;;;;;;;;16.79;37.02;100440.75;4972068;27;98180;-73
2023/05/11 03:15:05;;;;;;;;;;;;;;;16.79;37.12;100446.22;4967280;27;98093;-74
2023/05/11 03:17:31;;;;;;;;;;;;;;;16.77;37.15;100442.97;4984332;27;98079;-73
2023/05/11 03:20:02;;;;;;;;;;;;;;;16.75;37.23;100442.50;4985828;27;98292;-73
2023/05/11 03:22:28;;;;;;;;;;;;;;;16.75;37.11;100442.50;4965579;27;98258;-73
2023/05/11 03:24:55;;;;;;;;;;;;;;;16.74;37.05;100440.91;4961756;27;98087;-73
2023/05/11 03:27:22;;;;;;;;;;;;;;;16.73;36.99;100446.59;4987075;27;98359;-73
2023/05/11 03:29:50;;;;;;;;;;;;;;;16.73;36.99;100443.88;4966858;27;98540;-73
2023/05/11 03:32:17;;;;;;;;;;;;;;;16.72;37.11;100436.84;4986131;27;97985;-73
2023/05/11 03:34:45;;;;;;;;;;;;;;;16.72;37.23;100439.56;4983264;27;98032;-73
2023/05/11 03:37:12;;;;;;;;;;;;;;;16.72;37.17;100440.34;4967800;27;98043;-73
2023/05/11 03:39:40;;;;;;;;;;;;;;;16.72;37.12;100442.28;4968022;27;98079;-73
2023/05/11 03:42:07;;;;;;;;;;;;;;;16.72;37.20;100434.91;4959724;27;98040;-73
2023/05/11 03:44:36;;;;;;;;;;;;;;;16.73;37.24;100439.28;4984769;27;98150;-73
2023/05/11 03:47:02;;;;;;;;;;;;;;;16.75;37.20;100447.94;4992686;27;98521;-73
2023/05/11 03:49:30;;;;;;;;;;;;;;;16.76;36.96;100437.84;4965488;27;100314;-73
2023/05/11 03:51:56;;;;;;;;;;;;;;;16.76;37.23;100449.53;4967848;27;98151;-73
2023/05/11 03:54:25;;;;;;;;;;;;;;;16.78;37.09;100446.50;4977848;27;98318;-73
2023/05/11 03:56:52;;;;;;;;;;;;;;;16.80;37.02;100450.53;4968903;27;97995;-73
2023/05/11 03:59:19;;;;;;;;;;;;;;;16.81;37.11;100443.16;4988587;27;98243;-73
2023/05/11 04:01:45;;;;;;;;;;;;;;;16.81;37.17;100438.53;4981531;27;98158;-73
2023/05/11 04:04:12;;;;;;;;;;;;;;;16.84;37.13;100443.34;4991291;27;98072;-73
2023/05/11 04:06:38;;;;;;;;;;;;;;;16.86;37.12;100445.78;4969779;27;102180;-74
2023/05/11 04:09:06;;;;;;;;;;;;;;;16.87;36.97;100434.56;4970643;27;98104;-74
2023/05/11 04:11:38;;;;;;;;;;;;;;;16.89;37.08;100440.50;4967458;27;97949;-73
2023/05/11 04:14:05;;;;;;;;;;;;;;;16.91;37.02;100435.56;4972814;27;98021;-73
2023/05/11 04:16:32;;;;;;;;;;;;;;;16.95;37.06;100426.78;4969144;27;98314;-74
2023/05/11 04:18:59;;;;;;;;;;;;;;;16.98;37.00;100439.75;4951141;27;99086;-73
2023/05/11 04:21:26;;;;;;;;;;;;;;;17.00;37.00;100432.09;4952675;27;98092;-74
2023/05/11 04:23:56;;;;;;;;;;;;;;;17.03;37.11;100439.66;4964000;27;98143;-73
2023/05/11 04:26:22;;;;;;;;;;;;;;;17.06;36.93;100444.47;4954955;27;98184;-74
2023/05/11 04:28:49;;;;;;;;;;;;;;;17.08;36.99;100445.75;4963218;27;98228;-74
2023/05/11 04:31:17;;;;;;;;;;;;;;;17.11;37.13;100445.13;4952945;27;98035;-74
2023/05/11 04:33:45;;;;;;;;;;;;;;;17.16;37.00;100447.72;4951777;27;97953;-74
2023/05/11 04:36:13;;;;;;;;;;;;;;;17.20;36.95;100447.91;4943293;27;98852;-74
2023/05/11 04:38:40;;;;;;;;;;;;;;;17.25;36.92;100452.41;4952791;27;98379;-74
2023/05/11 04:41:07;;;;;;;;;;;;;;;17.30;36.82;100453.09;4949120;27;98898;-74
2023/05/11 04:43:35;;;;;;;;;;;;;;;17.34;36.84;100448.63;4963580;27;98013;-74
2023/05/11 04:46:02;;;;;;;;;;;;;;;17.40;36.74;100450.09;4969529;27;98386;-74
2023/05/11 04:48:29;;;;;;;;;;;;;;;17.47;36.83;100454.28;4954866;27;98346;-74
2023/05/11 04:50:56;;;;;;;;;;;;;;;17.52;36.81;100452.22;4953933;27;97927;-74
2023/05/11 04:53:22;;;;;;;;;;;;;;;17.60;36.62;100451.47;4961768;27;98100;-74
2023/05/11 04:55:49;;;;;;;;;;;;;;;17.68;36.73;100447.16;4966494;27;97967;-74
2023/05/11 04:58:16;;;;;;;;;;;;;;;17.76;36.69;100451.88;4953237;27;98013;-74
2023/05/11 05:00:42;;;;;;;;;;;;;;;17.84;36.72;100451.13;4951383;27;98401;-74
2023/05/11 05:03:09;;;;;;;;;;;;;;;17.93;36.60;100456.59;4945358;27;98448;-74
2023/05/11 05:05:35;;;;;;;;;;;;;;;18.05;36.69;100458.72;4972153;27;98907;-75
2023/05/11 05:08:03;;;;;;;;;;;;;;;18.14;36.44;100456.78;4948323;27;97900;-74
2023/05/11 05:10:30;;;;;;;;;;;;;;;18.27;36.47;100455.03;4945974;27;98169;-74
2023/05/11 05:12:57;;;;;;;;;;;;;;;18.39;36.43;100457.94;4985507;27;98226;-74
2023/05/11 05:15:27;;;;;;;;;;;;;;;18.51;36.30;100460.88;4967497;27;98402;-74
2023/05/11 05:17:54;;;;;;;;;;;;;;;18.65;36.23;100466.94;4950997;27;98043;-74
2023/05/11 05:20:22;;;;;;;;;;;;;;;18.76;36.34;100461.22;4987250;27;98220;-75
2023/05/11 05:22:50;;;;;;;;;;;;;;;18.87;36.42;100457.81;4981460;27;98127;-75
2023/05/11 05:25:21;;;;;;;;;;;;;;;18.96;36.39;100457.00;4980392;27;98101;-75
2023/05/11 05:27:50;;;;;;;;;;;;;;;19.13;36.58;100462.44;4977764;27;98403;-75
2023/05/11 05:30:17;;;;;;;;;;;;;;;19.35;36.37;100464.94;4976450;27;98290;-75
2023/05/11 05:32:45;;;;;;;;;;;;;;;19.53;36.26;100456.69;4949168;27;98101;-75
2023/05/11 05:35:15;;;;;;;;;;;;;;;19.71;36.29;100462.94;4965505;27;98799;-75
2023/05/11 05:37:46;;;;;;;;;;;;;;;19.84;36.09;100457.22;4964467;28;98264;-75
2023/05/11 05:40:14;;;;;;;;;;;;;;;20.02;36.02;100460.66;4964897;27;98023;-75
2023/05/11 05:42:40;;;;;;;;;;;;;;;20.24;36.10;100466.97;4941009;27;98176;-75
2023/05/11 05:45:10;;;;;;;;;;;;;;;20.44;35.91;100462.66;4951264;27;98043;-75
2023/05/11 05:47:41;;;;;;;;;;;;;;;20.69;35.76;100472.63;4968226;27;98382;-75
2023/05/11 05:50:10;;;;;;;;;;;;;;;20.93;35.81;100471.13;4979040;27;98679;-75
2023/05/11 05:52:41;;;;;;;;;;;;;;;21.13;35.69;100464.00;4941700;27;98019;-75
2023/05/11 05:55:08;;;;;;;;;;;;;;;21.37;35.63;100471.50;4947871;27;98716;-76
2023/05/11 05:57:36;;;;;;;;;;;;;;;21.55;35.72;100468.22;4953323;27;98018;-75
2023/05/11 06:00:04;;;;;;;;;;;;;;;21.79;35.54;100469.41;4970667;27;98184;-75
2023/05/11 06:02:34;;;;;;;;;;;;;;;21.99;35.54;100467.69;4958843;27;99048;-76
2023/05/11 06:05:02;;;;;;;;;;;;;;;22.18;35.66;100469.88;4946291;27;98222;-75
2023/05/11 06:07:32;;;;;;;;;;;;;;;22.41;35.64;100472.91;4952795;27;99930;-75
2023/05/11 06:10:01;;;;;;;;;;;;;;;22.67;35.46;100475.22;4955015;27;98520;-76
2023/05/11 06:12:28;;;;;;;;;;;;;;;23.07;35.26;100477.97;4955291;27;98241;-76
2023/05/11 06:14:58;;;;;;;;;;;;;;;23.47;34.81;100477.84;4942673;27;97979;-75
2023/05/11 06:17:29;;;;;;;;;;;;;;;23.89;34.91;100484.78;4966235;27;98355;-76
2023/05/11 06:19:56;;;;;;;;;;;;;;;24.31;34.63;100478.66;4963385;27;98092;-76
2023/05/11 06:22:23;;;;;;;;;;;;;;;24.66;34.37;100482.22;4938953;27;98481;-76
2023/05/11 06:24:53;;;;;;;;;;;;;;;25.05;34.54;100489.69;4951139;27;98381;-76
2023/05/11 06:27:24;;;;;;;;;;;;;;;25.78;34.01;100482.34;4981308;27;98212;-76
2023/05/11 06:29:53;;;;;;;;;;;;;;;26.50;33.64;100485.03;4976075;27;98063;-77
2023/05/11 06:32:20;;;;;;;;;;;;;;;27.07;33.25;100485.69;4982004;27;97844;-77
2023/05/11 06:34:48;;;;;;;;;;;;;;;27.60;33.06;100490.97;4965163;27;98276;-78
2023/05/11 06:37:19;;;;;;;;;;;;;;;28.14;32.86;100488.66;4981432;27;98381;-77
2023/05/11 06:39:46;;;;;;;;;;;;;;;28.58;33.02;100491.28;4966083;27;99558;-77
2023/05/11 06:42:16;;;;;;;;;;;;;;;28.88;32.98;100495.75;4965910;27;98470;-77
2023/05/11 06:44:47;;;;;;;;;;;;;;;29.16;32.78;100492.31;4964072;27;98085;-78
2023/05/11 06:47:16;;;;;;;;;;;;;;;29.48;33.23;100492.34;4950422;27;98124;-78
2023/05/11 06:49:46;;;;;;;;;;;;;;;29.80;32.99;100486.81;4963979;27;97981;-79
2023/05/11 06:52:13;;;;;;;;;;;;;;;30.11;32.74;100484.41;4974031;27;98133;-77
2023/05/11 06:54:42;;;;;;;;;;;;;;;30.35;32.73;100479.22;4965883;27;98428;-78
2023/05/11 06:57:09;;;;;;;;;;;;;;;30.57;32.96;100486.28;4960368;27;98167;-79
2023/05/11 06:59:36;;;;;;;;;;;;;;;30.84;32.86;100474.66;4976999;27;98282;-79
2023/05/11 07:02:04;;;;;;;;;;;;;;;31.12;32.85;100479.28;4975901;27;98089;-78
2023/05/11 07:04:31;;;;;;;;;;;;;;;31.24;32.72;100476.81;4970548;27;97948;-76
2023/05/11 07:07:03;;;;;;;;;;;;;;;31.38;32.79;100470.38;4947494;27;97942;-83
2023/05/11 07:09:31;;;;;;;;;;;;;;;31.44;32.58;100468.75;4976702;27;98147;-78
2023/05/11 07:11:59;;;;;;;;;;;;;;;31.53;32.88;100471.84;4971428;27;98010;-78
2023/05/11 07:14:30;;;;;;;;;;;;;;;31.72;32.61;100470.50;4968460;27;98407;-79
2023/05/11 07:17:00;;;;;;;;;;;;;;;32.00;32.52;100471.47;4968595;27;98139;-79
2023/05/11 07:19:29;;;;;;;;;;;;;;;32.16;32.60;100463.31;4983303;27;98246;-79
2023/05/11 07:21:56;;;;;;;;;;;;;;;32.37;32.14;100472.66;4970818;27;99162;-77
2023/05/11 07:24:24;;;;;;;;;;;;;;;32.61;32.25;100468.78;4989039;27;98427;-78
2023/05/11 07:26:53;;;;;;;;;;;;;;;32.88;32.20;100477.19;4991816;27;100075;-77
2023/05/11 07:29:22;;;;;;;;;;;;;;;33.16;32.19;100469.66;4972865;27;98273;-80
2023/05/11 07:31:54;;;;;;;;;;;;;;;33.51;32.06;100470.34;4973458;27;98983;-82
2023/05/11 07:34:23;;;;;;;;;;;;;;;33.88;31.86;100478.47;4971843;27;98236;-79
2023/05/11 07:36:54;;;;;;;;;;;;;;;34.22;31.55;100485.06;4973271;27;100049;-80
2023/05/11 07:39:22;;;;;;;;;;;;;;;34.64;31.09;100483.44;4971730;27;98022;-78
2023/05/11 07:41:50;;;;;;;;;;;;;;;35.05;31.07;100476.56;4988377;27;97999;-79
2023/05/11 07:44:20;;;;;;;;;;;;;;;35.39;30.91;100482.56;4972798;27;98898;-78
2023/05/11 07:46:48;;;;;;;;;;;;;;;35.78;31.03;100478.00;4977156;27;98655;-78
2023/05/11 07:49:16;;;;;;;;;;;;;;;36.16;30.96;100477.44;4987898;27;98370;-79
2023/05/11 07:51:44;;;;;;;;;;;;;;;36.58;30.85;100486.66;4988976;27;98093;-79
2023/05/11 07:54:15;;;;;;;;;;;;;;;37.02;30.63;100480.56;4986420;27;98719;-77
2023/05/11 07:56:41;;;;;;;;;;;;;;;37.52;30.45;100481.78;4988154;27;97936;-80
2023/05/11 07:59:12;;;;;;;;;;;;;;;37.94;30.26;100485.19;4989736;27;98119;-80
2023/05/11 08:01:39;;;;;;;;;;;;;;;38.12;29.95;100480.94;4983930;27;98030;-78
2023/05/11 08:04:08;;;;;;;;;;;;;;;38.70;29.77;100486.84;4974386;27;98159;-78
2023/05/11 08:06:41;;;;;;;;;;;;;;;39.26;29.63;100483.06;4973451;27;98086;-80
2023/05/11 08:09:12;;;;;;;;;;;;;;;39.90;29.22;100481.63;4974245;27;98098;-80
2023/05/11 08:11:41;;;;;;;;;;;;;;;40.29;29.35;100481.97;4965297;27;98095;-81
2023/05/11 08:14:13;;;;;;;;;;;;;;;40.59;29.44;100474.53;4976610;27;98421;-80
2023/05/11 08:16:40;;;;;;;;;;;;;;;41.13;29.30;100472.78;4967625;27;98977;-78
2023/05/11 08:19:11;;;;;;;;;;;;;;;41.64;28.84;100480.34;4970923;27;98425;-81
2023/05/11 08:21:43;;;;;;;;;;;;;;;42.37;28.67;100473.34;4968955;27;97948;-80
2023/05/11 08:24:11;;;;;;;;;;;;;;;43.23;27.90;100471.38;4989923;27;97993;-81
2023/05/11 08:26:39;;;;;;;;;;;;;;;43.90;27.99;100468.66;4975060;27;98039;-77
2023/05/11 08:29:09;;;;;;;;;;;;;;;44.47;27.66;100480.09;4987224;27;97945;-75
2023/05/11 08:31:39;;;;;;;;;;;;;;;44.89;27.61;100463.66;4978210;27;98207;-80
2023/05/11 08:34:11;;;;;;;;;;;;;;;45.47;27.68;100470.75;4972424;27;98110;-80
2023/05/11 08:36:41;;;;;;;;;;;;;;;46.09;27.36;100473.03;5002977;27;98005;-80
2023/05/11 08:39:09;;;;;;;;;;;;;;;46.45;27.55;100466.34;4967087;27;98643;-82
2023/05/11 08:41:39;;;;;;;;;;;;;;;46.91;27.04;100469.97;4987785;27;98258;-81
2023/05/11 08:44:07;;;;;;;;;;;;;;;47.37;27.11;100458.00;4971154;27;99304;-82
2023/05/11 08:46:37;;;;;;;;;;;;;;;47.91;27.08;100460.34;4970244;27;98035;-80
2023/05/11 08:49:03;;;;;;;;;;;;;;;48.19;26.87;100463.03;4988459;27;98160;-78
2023/05/11 08:51:32;;;;;;;;;;;;;;;48.48;26.71;100468.53;4976642;27;98202;-77
2023/05/11 08:54:00;;;;;;;;;;;;;;;48.95;26.70;100460.56;4985408;27;98198;-81
2023/05/11 08:56:27;;;;;;;;;;;;;;;49.55;26.48;100445.31;4971783;27;98424;-80
2023/05/11 08:58:57;;;;;;;;;;;;;;;50.20;26.16;100458.47;4972809;27;99376;-77
2023/05/11 09:01:32;;;;;;;;;;;;;;;50.75;26.01;100441.63;4989018;27;98128;-78
2023/05/11 09:04:00;;;;;;;;;;;;;;;51.32;26.12;100447.06;4987162;27;100140;-83
2023/05/11 09:06:28;;;;;;;;;;;;;;;49.65;27.51;100440.78;4988084;27;98184;-81
2023/05/11 09:08:59;;;;;;;;;;;;;;;49.23;27.62;100437.38;4989280;27;98263;-87
2023/05/11 09:11:32;;;;;;;;;;;;;;;49.77;26.98;100436.44;4971440;27;99751;-78
2023/05/11 09:14:01;;;;;;;;;;;;;;;50.04;26.75;100439.44;4987884;27;98374;-83
2023/05/11 09:16:30;;;;;;;;;;;;;;;49.82;26.86;100446.25;4974422;27;98211;-84
2023/05/11 09:19:01;;;;;;;;;;;;;;;49.07;27.04;100447.69;4971378;27;100498;-81
2023/05/11 09:21:34;;;;;;;;;;;;;;;48.23;27.97;100439.13;4989288;27;98715;-80
2023/05/11 09:24:03;;;;;;;;;;;;;;;47.62;28.23;100427.50;4990888;27;98681;-82
2023/05/11 09:26:37;;;;;;;;;;;;;;;47.18;28.59;100429.25;4988998;27;98112;-91
2023/05/11 09:29:05;;;;;;;;;;;;;;;46.82;28.36;100428.28;4991117;27;98789;-80
2023/05/11 09:31:38;;;;;;;;;;;;;;;46.53;28.47;100423.13;4971551;27;98310;-79
2023/05/11 09:34:18;;;;;;;;;;;;;;;46.46;28.35;100421.59;4989866;27;99474;-77
2023/05/11 09:36:47;;;;;;;;;;;;;;;46.64;27.95;100432.47;5003850;27;98085;-83
2023/05/11 09:39:14;;;;;;;;;;;;;;;46.82;28.04;100434.00;5003861;27;98008;-80
2023/05/11 09:41:41;;;;;;;;;;;;;;;46.99;27.72;100437.59;4988113;27;98335;-81
2023/05/11 09:44:14;;;;;;;;;;;;;;;47.54;27.09;100437.16;4974901;27;98437;-80
2023/05/11 09:46:47;;;;;;;;;;;;;;;47.64;26.86;100433.47;4970293;27;98829;-81
2023/05/11 09:49:18;;;;;;;;;;;;;;;48.18;26.82;100435.75;4986064;27;99905;-80
2023/05/11 09:51:49;;;;;;;;;;;;;;;49.03;26.15;100435.00;4970995;27;98036;-85
2023/05/11 09:54:18;;;;;;;;;;;;;;;49.54;26.06;100432.34;4966397;27;98500;-80
2023/05/11 09:56:55;;;;;;;;;;;;;;;49.39;26.07;100427.03;4987157;27;98195;-81
2023/05/11 09:59:39;;;;;;;;;;;;;;;50.76;25.40;100436.66;4982479;27;100940;-78
2023/05/11 10:02:26;;;;;;;;;;;;;;;51.54;25.19;100431.47;4988282;27;98363;-80
2023/05/11 10:05:07;;;;;;;;;;;;;;;48.92;27.03;100408.09;5002980;27;98334;-80
2023/05/11 10:07:38;;;;;;;;;;;;;;;49.05;26.80;100407.44;4987582;27;98379;-82
2023/05/11 10:10:12;;;;;;;;;;;;;;;47.41;27.83;100412.84;4985690;27;97858;-84
2023/05/11 10:12:43;;;;;;;;;;;;;;;49.17;26.25;100408.09;5002768;27;99639;-81
2023/05/11 10:15:12;;;;;;;;;;;;;;;50.20;25.51;100414.75;4988311;27;119558;-81
2023/05/11 10:17:43;;;;;;;;;;;;;;;50.51;25.36;100408.19;4968696;27;98370;-83
2023/05/11 10:20:10;;;;;;;;;;;;;;;51.03;25.21;100391.59;4971757;27;98241;-80
2023/05/11 10:22:39;;;;;;;;;;;;;;;51.24;24.90;100397.44;4986657;27;98128;-80
2023/05/11 10:25:06;;;;;;;;;;;;;;;51.88;24.70;100407.72;4969683;27;99864;-81
2023/05/11 10:27:37;;;;;;;;;;;;;;;51.11;25.28;100401.06;4970157;27;97875;-81
2023/05/11 10:30:04;;;;;;;;;;;;;;;49.61;26.50;100403.88;4967408;27;100460;-83
2023/05/11 10:32:39;;;;;;;;;;;;;;;51.69;24.77;100397.22;4971511;27;98926;-87
2023/05/11 10:35:07;;;;;;;;;;;;;;;51.77;25.04;100400.94;4982668;27;99221;-81
2023/05/11 10:37:37;;;;;;;;;;;;;;;49.27;26.80;100388.47;4985207;27;98479;-84
2023/05/11 10:40:04;;;;;;;;;;;;;;;51.10;25.18;100398.72;4971416;27;98560;-84
2023/05/11 10:43:05;;;;;;;;;;;;;;;51.51;25.22;100396.03;4983037;27;98229;-79
2023/05/11 10:45:49;;;;;;;;;;;;;;;52.25;24.62;100395.88;5019831;27;98409;-80
2023/05/11 10:48:55;;;;;;;;;;;;;;;52.56;24.58;100395.34;4982257;27;98442;-82
2023/05/11 10:51:44;;;;;;;;;;;;;;;52.76;23.95;100397.41;4979252;27;98188;-86
2023/05/11 10:54:33;;;;;;;;;;;;;;;50.16;26.40;100380.66;4981269;27;98139;-74
2023/05/11 10:57:30;;;;;;;;;;;;;;;47.67;28.06;100383.88;4975628;27;98205;-78
2023/05/11 11:00:10;;;;;;;;;;;;;;;45.59;28.82;100376.91;5008051;27;98156;-79
2023/05/11 11:02:40;;;;;;;;;;;;;;;43.74;29.73;100376.38;4987947;27;98295;-79
2023/05/11 11:05:12;;;;;;;;;;;;;;;42.26;30.89;100383.34;4976301;27;98406;-77
2023/05/11 11:07:59;;;;;;;;;;;;;;;41.00;31.09;100384.66;4991153;27;98383;-82
2023/05/11 11:10:50;;;;;;;;;;;;;;;39.85;31.73;100386.34;4990090;27;98094;-82
2023/05/11 11:13:21;;;;;;;;;;;;;;;38.81;32.07;100389.94;4957612;27;98103;-91
2023/05/11 11:16:17;;;;;;;;;;;;;;;38.15;31.64;100395.66;4955695;27;98334;-91
2023/05/11 11:18:44;;;;;;;;;;;;;;;37.33;32.38;100397.28;4971892;27;98132;-90
2023/05/11 11:21:14;;;;;;;;;;;;;;;36.55;32.37;100391.34;4969345;27;99311;-72
2023/05/11 11:23:40;;;;;;;;;;;;;;;35.87;32.51;100391.25;4970623;27;98557;-82
2023/05/11 11:26:10;;;;;;;;;;;;;;;35.32;32.69;100386.72;4985768;27;98132;-78
2023/05/11 11:28:53;;;;;;;;;;;;;;;34.86;32.81;100388.59;4952665;27;98089;-77
2023/05/11 11:31:28;;;;;;;;;;;;;;;34.37;32.54;100403.25;4982747;27;98031;-76
2023/05/11 11:33:59;;;;;;;;;;;;;;;33.89;32.90;100404.59;4951524;27;98379;-75
2023/05/11 11:37:02;;;;;;;;;;;;;;;33.50;32.85;100413.69;4968855;27;98323;-76
2023/05/11 11:39:48;;;;;;;;;;;;;;;33.17;32.39;100405.03;4986054;27;98082;-77
2023/05/11 11:42:40;;;;;;;;;;;;;;;32.97;32.68;100413.34;4951990;27;99000;-77
2023/05/11 11:45:29;;;;;;;;;;;;;;;33.13;32.07;100412.69;4969697;27;98285;-75
2023/05/11 11:48:13;;;;;;;;;;;;;;;33.32;31.42;100407.59;4968158;27;98441;-77
2023/05/11 11:50:46;;;;;;;;;;;;;;;35.92;29.23;100420.78;4948347;27;98540;-78
2023/05/11 11:53:37;;;;;;;;;;;;;;;36.50;28.86;100422.78;4976904;27;99823;-74
2023/05/11 11:56:14;;;;;;;;;;;;;;;34.86;30.69;100428.59;4973805;27;98065;-77
2023/05/11 11:58:45;;;;;;;;;;;;;;;34.36;31.10;100420.47;4970185;27;98178;-78
2023/05/11 12:01:13;;;;;;;;;;;;;;;34.00;31.44;100421.19;4986061;27;98346;-80
2023/05/11 12:03:42;;;;;;;;;;;;;;;33.71;31.48;100430.06;5001706;27;98978;-76
2023/05/11 12:06:13;;;;;;;;;;;;;;;33.45;31.56;100426.16;4967463;27;98448;-75
2023/05/11 12:08:41;;;;;;;;;;;;;;;33.23;31.54;100427.69;4967222;27;98119;-75
2023/05/11 12:11:11;;;;;;;;;;;;;;;33.07;31.43;100427.53;4966701;27;99281;-75
2023/05/11 12:13:37;;;;;;;;;;;;;;;33.55;30.65;100427.16;4972108;27;98538;-75
2023/05/11 12:16:18;;;;;;;;;;;;;;;34.59;30.06;100433.59;4968685;27;98627;-73
2023/05/11 12:19:00;;;;;;;;;;;;;;;35.11;29.46;100441.25;4990550;27;98687;-77
2023/05/11 12:21:28;;;;;;;;;;;;;;;35.52;29.10;100432.25;5006696;27;97981;-77
2023/05/11 12:23:59;;;;;;;;;;;;;;;35.94;28.84;100423.94;4966573;27;98212;-77
2023/05/11 12:26:27;;;;;;;;;;;;;;;36.50;28.74;100431.19;4974062;27;98437;-77
2023/05/11 12:29:10;;;;;;;;;;;;;;;36.78;28.60;100437.97;4987705;27;98034;-77
2023/05/11 12:31:38;;;;;;;;;;;;;;;35.47;30.00;100431.97;4988400;27;98390;-78
2023/05/11 12:34:06;;;;;;;;;;;;;;;36.03;29.32;100429.69;4985731;27;98086;-77
2023/05/11 12:36:35;;;;;;;;;;;;;;;36.38;29.12;100427.91;4972854;27;98916;-72
2023/05/11 12:39:10;;;;;;;;;;;;;;;36.74;29.04;100420.44;4986790;27;98363;-79
2023/05/11 12:41:38;;;;;;;;;;;;;;;36.86;28.76;100417.66;4987404;27;98268;-76
2023/05/11 12:44:05;;;;;;;;;;;;;;;37.40;28.61;100412.31;4986212;27;98280;-73
2023/05/11 12:46:33;;;;;;;;;;;;;;;37.64;28.89;100423.97;4965869;27;98079;-74
2023/05/11 12:49:00;;;;;;;;;;;;;;;37.42;28.75;100421.13;4971229;27;98201;-78
2023/05/11 12:51:42;;;;;;;;;;;;;;;37.22;29.01;100427.78;4990134;27;99137;-76